Time;durP1;ratioP1;P1;durP2;ratioP2;P2;SDS_P1;SDS_P2;PMS_P1;PMS_P2;Temp;Humidity;BMP_temperature;BMP_pressure;BME280_temperature;BME280_humidity;BME280_pressure;Samples;Min_cycle;Max_cycle;Signal;HPM_P1;HPM_P2
2021/04/23 00:00:56;;;;;;;3.52;2.58;;;;;;;4.09;70.58;96780.17;1783066;79;21061;-53
2021/04/23 00:03:42;;;;;;;5.33;2.67;;;;;;;3.99;71.20;96787.41;1787229;79;21838;-50
2021/04/23 00:06:21;;;;;;;4.30;2.77;;;;;;;3.79;71.59;96792.91;1776528;79;21192;-51
2021/04/23 00:08:58;;;;;;;6.35;2.50;;;;;;;3.73;72.31;96779.48;1784602;79;21120;-52
2021/04/23 00:11:37;;;;;;;5.47;3.37;;;;;;;3.64;72.09;96776.39;1723729;81;21459;-51
2021/04/23 00:14:05;;;;;;;;;;;;;;;3.63;72.56;96773.88;1706992;83;21495;-51
2021/04/23 00:16:38;;;;;;;6.05;2.77;;;;;;;3.70;72.54;96775.33;1723294;81;21356;-51
2021/04/23 00:19:10;;;;;;;3.67;2.15;;;;;;;3.78;72.54;96772.00;1729327;81;21143;-51
2021/04/23 00:21:39;;;;;;;3.25;2.47;;;;;;;3.89;72.21;96768.16;1735376;81;21157;-52
2021/04/23 00:24:12;;;;;;;4.12;2.50;;;;;;;3.98;72.32;96774.18;1740801;81;21125;-52
2021/04/23 00:26:41;;;;;;;4.33;3.05;;;;;;;4.07;72.07;96767.39;1704629;83;21203;-52
2021/04/23 00:29:10;;;;;;;4.75;3.17;;;;;;;4.18;71.33;96772.09;1709659;81;21496;-52
2021/04/23 00:31:38;;;;;;;6.50;3.05;;;;;;;4.23;71.40;96767.59;1725207;81;21085;-52
2021/04/23 00:34:08;;;;;;;5.00;3.83;;;;;;;4.33;71.07;96757.76;1734079;81;21048;-51
2021/04/23 00:36:36;;;;;;;7.90;4.15;;;;;;;4.41;70.92;96760.84;1708066;82;21125;-52
2021/04/23 00:39:04;;;;;;;6.37;3.95;;;;;;;4.50;71.12;96755.73;1737034;81;21578;-52
2021/04/23 00:41:35;;;;;;;4.42;3.15;;;;;;;4.60;70.55;96751.42;1730938;81;21258;-55
2021/04/23 00:44:05;;;;;;;;;;;;;;;4.68;70.26;96750.23;1731246;82;21606;-52
2021/04/23 00:46:34;;;;;;;4.70;3.05;;;;;;;4.78;70.42;96747.17;1740291;81;20237;-52
2021/04/23 00:49:03;;;;;;;2.45;2.22;;;;;;;4.91;70.58;96742.78;1736492;81;21196;-52
2021/04/23 00:51:44;;;;;;;3.42;2.58;;;;;;;5.02;69.53;96743.12;1678240;83;21184;-52
2021/04/23 00:54:14;;;;;;;4.78;2.50;;;;;;;5.00;69.07;96743.66;1734869;81;21396;-51
2021/04/23 00:56:42;;;;;;;4.10;2.58;;;;;;;4.88;69.01;96744.20;1739953;81;21180;-53
2021/04/23 00:59:13;;;;;;;3.50;2.53;;;;;;;4.76;69.58;96749.45;1732020;81;21165;-53
2021/04/23 01:01:45;;;;;;;4.58;2.47;;;;;;;4.76;70.36;96748.98;1721357;81;21117;-52
2021/04/23 01:04:16;;;;;;;2.45;2.10;;;;;;;4.85;70.44;96750.77;1702595;83;21062;-52
2021/04/23 01:06:44;;;;;;;3.80;2.60;;;;;;;4.93;70.26;96746.96;1675992;84;21300;-52
2021/04/23 01:09:18;;;;;;;2.98;2.45;;;;;;;5.03;70.28;96749.09;1714771;81;21597;-53
2021/04/23 01:11:46;;;;;;;3.87;2.25;;;;;;;5.11;69.77;96749.58;1722034;81;21089;-52
2021/04/23 01:14:14;;;;;;;2.37;2.17;;;;;;;5.03;69.60;96750.38;1737617;81;21152;-51
2021/04/23 01:16:43;;;;;;;3.50;2.35;;;;;;;4.96;69.48;96739.08;1713594;83;21770;-52
2021/04/23 01:19:13;;;;;;;3.22;2.22;;;;;;;4.88;69.43;96739.88;1774590;79;21434;-51
2021/04/23 01:21:43;;;;;;;2.55;2.05;;;;;;;4.79;69.71;96740.31;1743144;81;21071;-51
2021/04/23 01:24:12;;;;;;;2.15;1.90;;;;;;;4.71;69.98;96740.66;1769926;79;21120;-50
2021/04/23 01:26:44;;;;;;;;;;;;;;;4.67;69.97;96735.71;1767470;79;21183;-52
2021/04/23 01:29:13;;;;;;;3.00;1.92;;;;;;;4.56;70.00;96744.73;1778445;79;20237;-53
2021/04/23 01:31:43;;;;;;;2.25;1.98;;;;;;;4.37;70.28;96739.55;1701519;83;21215;-49
2021/04/23 01:34:22;;;;;;;2.42;2.22;;;;;;;4.31;70.95;96744.13;1735093;81;21152;-52
2021/04/23 01:36:52;;;;;;;3.17;2.33;;;;;;;4.28;70.86;96740.43;1782615;79;21136;-52
2021/04/23 01:39:24;;;;;;;3.37;2.45;;;;;;;4.23;71.05;96747.05;1777259;79;21144;-54
2021/04/23 01:41:53;;;;;;;3.80;2.22;;;;;;;4.21;70.78;96748.81;1783962;79;21164;-52
2021/04/23 01:44:21;;;;;;;2.55;2.10;;;;;;;4.16;70.67;96745.19;1777895;79;22315;-50
2021/04/23 01:46:51;;;;;;;2.83;2.30;;;;;;;4.16;70.86;96750.75;1777648;79;21140;-50
2021/04/23 01:49:21;;;;;;;2.95;2.00;;;;;;;4.13;70.95;96747.02;1720797;83;21192;-52
2021/04/23 01:51:53;;;;;;;3.60;2.50;;;;;;;4.10;71.17;96750.58;1792223;79;21600;-51
2021/04/23 01:54:20;;;;;;;2.72;2.33;;;;;;;4.09;71.38;96750.17;1741577;80;21093;-50
2021/04/23 01:56:51;;;;;;;3.90;2.55;;;;;;;4.14;71.32;96748.24;1774548;79;22311;-50
2021/04/23 01:59:19;;;;;;;4.45;2.42;;;;;;;4.20;71.23;96750.56;1751761;80;21603;-51
2021/04/23 02:01:47;;;;;;;2.42;2.20;;;;;;;4.22;71.14;96750.04;1779362;79;21110;-50
2021/04/23 02:04:16;;;;;;;3.30;2.08;;;;;;;4.25;70.91;96750.38;1772429;79;21093;-52
2021/04/23 02:06:47;;;;;;;3.27;2.30;;;;;;;4.30;71.05;96753.58;1714887;81;21605;-51
2021/04/23 02:09:16;;;;;;;3.27;2.55;;;;;;;4.40;71.30;96750.16;1717271;81;21370;-50
2021/04/23 02:11:47;;;;;;;5.58;2.30;;;;;;;4.52;71.24;96748.36;1751138;80;21159;-51
2021/04/23 02:14:16;;;;;;;3.90;2.50;;;;;;;4.64;71.04;96740.55;1701669;83;21153;-50
2021/04/23 02:16:44;;;;;;;2.45;2.15;;;;;;;4.68;70.23;96742.53;1737946;81;21160;-50
2021/04/23 02:19:14;;;;;;;3.40;1.92;;;;;;;4.67;70.04;96744.70;1746373;81;21601;-50
2021/04/23 02:21:43;;;;;;;4.08;2.50;;;;;;;4.65;69.58;96747.80;1730405;81;21228;-50
2021/04/23 02:24:12;;;;;;;3.62;2.27;;;;;;;4.56;69.71;96758.88;1712293;83;21658;-51
2021/04/23 02:26:42;;;;;;;2.42;2.00;;;;;;;4.51;70.08;96759.53;1786871;79;21566;-52
2021/04/23 02:29:13;;;;;;;3.85;2.25;;;;;;;4.55;70.19;96760.22;1783140;79;21172;-51
2021/04/23 02:31:46;;;;;;;2.98;2.15;;;;;;;4.61;70.06;96762.53;1770263;79;21180;-51
2021/04/23 02:34:16;;;;;;;2.98;2.10;;;;;;;4.65;69.95;96761.94;1768303;79;22258;-50
2021/04/23 02:36:44;;;;;;;3.83;2.40;;;;;;;4.68;69.93;96769.52;1778423;79;21044;-50
2021/04/23 02:39:16;;;;;;;4.15;2.67;;;;;;;4.71;70.04;96767.64;1792890;79;21463;-50
2021/04/23 02:41:45;;;;;;;2.47;2.20;;;;;;;4.78;69.85;96760.03;1788749;79;21176;-51
2021/04/23 02:44:15;;;;;;;3.58;2.85;;;;;;;4.81;69.50;96755.22;1776002;79;21064;-51
2021/04/23 02:46:43;;;;;;;5.22;2.60;;;;;;;4.84;69.58;96754.25;1765993;79;21469;-51
2021/04/23 02:49:12;;;;;;;2.45;2.15;;;;;;;4.88;69.19;96750.62;1759599;79;28766;-51
2021/04/23 02:51:44;;;;;;;5.67;2.15;;;;;;;4.86;69.08;96750.70;1786247;79;21548;-50
2021/04/23 02:54:13;;;;;;;3.70;2.40;;;;;;;4.82;68.97;96744.04;1781287;79;22360;-52
2021/04/23 02:56:42;;;;;;;3.87;2.27;;;;;;;4.76;69.10;96754.59;1781271;79;21096;-52
2021/04/23 02:59:11;;;;;;;4.03;2.47;;;;;;;4.67;69.52;96762.70;1764288;79;21374;-52
2021/04/23 03:01:45;;;;;;;5.53;3.00;;;;;;;4.63;69.58;96762.47;1789514;79;21934;-52
2021/04/23 03:04:13;;;;;;;2.72;2.33;;;;;;;4.58;69.66;96767.80;1774681;79;22018;-53
2021/04/23 03:06:43;;;;;;;2.55;2.35;;;;;;;4.51;69.83;96771.09;1778835;79;21769;-54
2021/04/23 03:09:11;;;;;;;3.45;2.42;;;;;;;4.43;69.87;96764.98;1784704;79;21168;-52
2021/04/23 03:11:40;;;;;;;3.92;2.40;;;;;;;4.32;70.19;96765.89;1717720;82;21125;-52
2021/04/23 03:14:08;;;;;;;;;;;;;;;4.24;70.45;96764.95;1719584;82;21624;-50
2021/04/23 03:16:40;;;;;;;3.65;2.67;;;;;;;4.20;70.68;96768.54;1715341;82;20488;-50
2021/04/23 03:19:16;;;;;;;3.62;2.30;;;;;;;4.12;70.69;96774.45;1765052;79;21169;-51
2021/04/23 03:21:44;;;;;;;3.65;2.42;;;;;;;4.09;71.03;96778.88;1783096;79;21460;-52
2021/04/23 03:24:13;;;;;;;;;;;;;;;4.05;71.22;96774.33;1758318;79;21199;-50
2021/04/23 03:26:43;;;;;;;40.20;15.18;;;;;;;4.12;71.02;96774.91;1779901;79;20232;-55
2021/04/23 03:29:14;;;;;;;6.78;3.70;;;;;;;4.13;70.76;96777.84;1784423;79;21513;-50
2021/04/23 03:31:42;;;;;;;3.35;2.52;;;;;;;4.07;70.97;96780.69;1738954;81;21244;-50
2021/04/23 03:34:11;;;;;;;4.75;2.35;;;;;;;4.01;71.10;96774.05;1700841;83;21128;-52
2021/04/23 03:36:39;;;;;;;5.80;2.90;;;;;;;3.97;71.29;96786.19;1784776;79;21305;-50
2021/04/23 03:39:09;;;;;;;4.72;2.95;;;;;;;3.97;71.29;96786.19;1795322;79;21501;-50
2021/04/23 03:41:38;;;;;;;4.37;2.77;;;;;;;3.99;71.40;96789.52;1790390;79;21473;-51
2021/04/23 03:44:06;;;;;;;3.37;3.08;;;;;;;4.03;71.24;96791.54;1735852;81;21049;-51
2021/04/23 03:46:34;;;;;;;7.03;3.22;;;;;;;4.13;71.32;96796.67;1741290;80;21541;-51
2021/04/23 03:49:04;;;;;;;4.15;2.60;;;;;;;4.23;71.26;96797.95;1778327;79;21199;-51
2021/04/23 03:51:32;;;;;;;2.85;2.55;;;;;;;4.32;70.67;96803.14;1757128;80;21196;-51
2021/04/23 03:54:00;;;;;;;4.15;2.80;;;;;;;4.38;70.62;96800.78;1784826;79;21605;-51
2021/04/23 03:56:28;;;;;;;5.47;3.50;;;;;;;4.49;70.46;96804.16;1781235;79;21053;-51
2021/04/23 03:58:56;;;;;;;7.05;3.60;;;;;;;4.58;70.24;96800.75;1786678;79;21092;-51
2021/04/23 04:01:25;;;;;;;5.30;3.30;;;;;;;4.63;69.58;96808.27;1744396;81;21221;-52
2021/04/23 04:03:54;;;;;;;4.90;3.67;;;;;;;4.60;69.63;96809.68;1780085;79;21137;-51
2021/04/23 04:06:25;;;;;;;4.30;3.47;;;;;;;4.63;69.77;96814.69;1774684;79;21502;-51
2021/04/23 04:08:54;;;;;;;4.75;3.10;;;;;;;4.65;69.43;96814.63;1790200;79;25006;-53
2021/04/23 04:11:23;;;;;;;3.92;2.90;;;;;;;4.63;69.27;96818.55;1788967;79;21149;-54
2021/04/23 04:13:52;;;;;;;3.60;2.75;;;;;;;4.58;69.40;96822.59;1798001;79;21117;-55
2021/04/23 04:16:20;;;;;;;5.22;3.12;;;;;;;4.61;69.49;96819.07;1778527;79;21115;-51
2021/04/23 04:18:48;;;;;;;5.58;2.98;;;;;;;4.64;69.30;96820.66;1771315;79;21458;-51
2021/04/23 04:21:17;;;;;;;4.45;2.87;;;;;;;4.61;69.47;96827.61;1713023;82;21077;-52
2021/04/23 04:23:46;;;;;;;5.00;3.30;;;;;;;4.56;69.46;96828.26;1716557;82;21045;-52
2021/04/23 04:26:14;;;;;;;;;;;;;;;4.48;69.49;96831.60;1758012;80;21191;-52
2021/04/23 04:28:42;;;;;;;4.87;3.57;;;;;;;4.44;69.59;96837.78;1737858;81;20219;-53
2021/04/23 04:31:12;;;;;;;5.85;3.62;;;;;;;4.39;69.85;96843.11;1781175;79;21117;-52
2021/04/23 04:33:42;;;;;;;3.87;3.00;;;;;;;4.37;69.92;96840.20;1787219;79;21124;-52
2021/04/23 04:36:10;;;;;;;5.40;4.27;;;;;;;4.47;70.11;96845.34;1773976;79;21545;-54
2021/04/23 04:38:38;;;;;;;5.13;3.60;;;;;;;4.68;70.04;96847.45;1747290;80;22576;-52
2021/04/23 04:41:07;;;;;;;7.35;4.62;;;;;;;4.98;69.37;96845.30;1778433;79;21090;-52
2021/04/23 04:43:36;;;;;;;4.90;3.55;;;;;;;5.41;68.62;96845.12;1787679;79;21222;-52
2021/04/23 04:46:04;;;;;;;4.75;3.50;;;;;;;6.07;66.73;96842.50;1731292;81;21037;-52
2021/04/23 04:48:34;;;;;;;7.65;3.98;;;;;;;6.66;65.29;96843.45;1787705;79;21124;-52
2021/04/23 04:51:05;;;;;;;9.28;3.95;;;;;;;7.30;63.86;96847.02;1781499;79;21371;-53
2021/04/23 04:53:33;;;;;;;6.37;4.12;;;;;;;7.98;61.53;96851.10;1788333;79;21183;-51
2021/04/23 04:56:01;;;;;;;6.97;4.10;;;;;;;8.63;58.25;96859.46;1748784;81;21537;-52
2021/04/23 04:58:34;;;;;;;4.47;3.92;;;;;;;8.89;57.83;96850.60;1738664;81;21132;-51
2021/04/23 05:01:05;;;;;;;6.37;4.60;;;;;;;9.32;56.66;96844.12;1777497;79;21179;-51
2021/04/23 05:03:34;;;;;;;8.10;4.35;;;;;;;9.84;55.19;96849.11;1759341;80;22297;-51
2021/04/23 05:06:04;;;;;;;8.33;5.30;;;;;;;10.21;53.15;96848.03;1781730;79;21550;-52
2021/04/23 05:08:32;;;;;;;10.88;5.08;;;;;;;10.24;52.45;96845.24;1786984;79;21189;-51
2021/04/23 05:11:00;;;;;;;6.80;4.90;;;;;;;10.28;52.65;96843.30;1780660;79;21105;-51
2021/04/23 05:13:28;;;;;;;6.15;4.40;;;;;;;10.28;52.56;96840.23;1792592;79;21216;-53
2021/04/23 05:15:55;;;;;;;5.53;4.58;;;;;;;10.54;52.75;96851.15;1777292;78;23506;-51
2021/04/23 05:18:23;;;;;;;9.73;5.10;;;;;;;11.07;51.25;96845.87;1737952;81;21096;-52
2021/04/23 05:20:52;;;;;;;7.58;5.50;;;;;;;11.68;49.41;96844.69;1781266;79;21151;-53
2021/04/23 05:23:20;;;;;;;;;;;;;;;12.18;48.19;96850.64;1781379;79;21149;-51
2021/04/23 05:25:48;;;;;;;7.80;5.12;;;;;;;12.77;48.04;96859.34;1783673;79;20204;-52
2021/04/23 05:28:16;;;;;;;8.53;5.83;;;;;;;13.64;46.80;96856.22;1733360;81;21373;-51
2021/04/23 05:30:44;;;;;;;13.20;6.12;;;;;;;14.56;44.13;96852.70;1793901;79;21071;-51
2021/04/23 05:33:12;;;;;;;9.93;6.25;;;;;;;15.13;41.52;96854.53;1793434;79;21132;-53
2021/04/23 05:35:40;;;;;;;12.40;6.42;;;;;;;15.54;40.87;96857.16;1788311;79;21113;-51
2021/04/23 05:38:08;;;;;;;19.27;8.95;;;;;;;15.95;39.65;96861.45;1784551;79;21593;-52
2021/04/23 05:40:45;;;;;;;13.78;6.72;;;;;;;16.12;39.11;96861.25;1784098;79;21368;-53
2021/04/23 05:43:14;;;;;;;11.63;6.50;;;;;;;16.35;38.38;96855.77;1783394;79;21482;-52
2021/04/23 05:45:45;;;;;;;11.30;6.15;;;;;;;16.85;36.77;96852.16;1779601;79;21069;-51
2021/04/23 05:48:14;;;;;;;14.98;6.30;;;;;;;17.21;35.84;96854.95;1779215;79;21132;-51
2021/04/23 05:50:42;;;;;;;11.55;6.12;;;;;;;17.57;34.92;96857.22;1715018;82;21622;-52
2021/04/23 05:53:12;;;;;;;11.00;6.05;;;;;;;18.14;34.41;96850.96;1789869;79;22321;-53
2021/04/23 05:55:39;;;;;;;9.73;5.60;;;;;;;18.65;33.65;96849.93;1776360;79;21152;-51
2021/04/23 05:58:08;;;;;;;11.90;6.47;;;;;;;19.18;32.76;96852.97;1779255;79;21068;-53
2021/04/23 06:00:36;;;;;;;9.58;5.80;;;;;;;19.56;30.68;96849.53;1787349;79;21095;-51
2021/04/23 06:03:06;;;;;;;9.48;5.75;;;;;;;19.38;30.65;96851.42;1739377;81;21100;-51
2021/04/23 06:05:34;;;;;;;10.23;5.95;;;;;;;19.10;30.68;96856.86;1750237;81;21224;-51
2021/04/23 06:08:07;;;;;;;11.80;6.30;;;;;;;18.80;30.81;96853.68;1738944;81;21593;-51
2021/04/23 06:10:37;;;;;;;10.18;6.40;;;;;;;18.35;31.40;96856.74;1785411;79;21075;-52
2021/04/23 06:13:07;;;;;;;11.50;6.03;;;;;;;17.92;32.22;96854.86;1795009;79;21053;-52
2021/04/23 06:15:37;;;;;;;11.97;6.03;;;;;;;17.53;32.83;96858.47;1784280;79;21215;-52
2021/04/23 06:18:05;;;;;;;11.65;6.33;;;;;;;17.47;33.07;96863.82;1720988;81;21380;-52
2021/04/23 06:20:34;;;;;;;10.65;6.00;;;;;;;17.42;32.64;96866.05;1765760;79;21681;-51
2021/04/23 06:23:03;;;;;;;7.70;5.08;;;;;;;17.27;32.87;96864.88;1774227;79;21625;-51
2021/04/23 06:25:31;;;;;;;9.75;5.50;;;;;;;17.02;32.81;96864.53;1786221;79;21172;-51
2021/04/23 06:27:59;;;;;;;12.33;5.60;;;;;;;16.65;32.96;96865.73;1784037;79;21155;-52
2021/04/23 06:30:30;;;;;;;11.55;5.72;;;;;;;16.35;33.29;96870.98;1778740;79;21876;-52
2021/04/23 06:33:00;;;;;;;12.28;5.25;;;;;;;16.16;33.45;96870.97;1795074;79;21181;-51
2021/04/23 06:35:31;;;;;;;11.22;5.15;;;;;;;16.10;33.56;96863.19;1778990;79;21208;-51
2021/04/23 06:37:58;;;;;;;8.83;5.40;;;;;;;15.97;34.09;96867.83;1769755;79;21061;-51
2021/04/23 06:40:28;;;;;;;10.88;5.12;;;;;;;15.80;34.18;96870.13;1787664;79;21470;-51
2021/04/23 06:42:55;;;;;;;9.20;5.20;;;;;;;15.63;34.30;96872.06;1794776;79;22416;-51
2021/04/23 06:45:23;;;;;;;9.63;5.30;;;;;;;15.59;34.39;96870.20;1780530;79;21103;-51
2021/04/23 06:47:52;;;;;;;10.13;5.12;;;;;;;15.77;34.60;96867.80;1783736;79;21120;-53
2021/04/23 06:50:23;;;;;;;7.20;4.35;;;;;;;16.23;34.29;96875.17;1784893;79;21144;-51
2021/04/23 06:52:53;;;;;;;8.65;4.70;;;;;;;16.76;33.47;96874.77;1785838;79;21591;-51
2021/04/23 06:55:23;;;;;;;8.98;4.80;;;;;;;17.27;32.65;96875.37;1793768;79;22288;-51
2021/04/23 06:57:51;;;;;;;9.28;4.20;;;;;;;17.64;31.78;96875.83;1793054;79;21194;-51
2021/04/23 07:00:29;;;;;;;10.58;4.60;;;;;;;17.84;31.47;96873.92;1784719;79;21165;-51
2021/04/23 07:02:57;;;;;;;7.83;4.45;;;;;;;18.14;30.49;96871.50;1775180;79;21478;-51
2021/04/23 07:05:25;;;;;;;10.90;4.72;;;;;;;18.50;30.48;96879.86;1786639;79;21510;-51
2021/04/23 07:07:54;;;;;;;8.33;4.12;;;;;;;19.13;29.48;96873.15;1790528;79;22101;-51
2021/04/23 07:10:25;;;;;;;9.25;4.25;;;;;;;19.83;28.69;96880.58;1785389;79;21129;-51
2021/04/23 07:12:53;;;;;;;7.90;4.42;;;;;;;20.37;27.87;96875.77;1784389;79;21108;-51
2021/04/23 07:15:23;;;;;;;6.97;4.25;;;;;;;20.87;27.19;96881.94;1788815;79;21680;-51
2021/04/23 07:17:52;;;;;;;9.13;3.95;;;;;;;21.35;26.39;96890.41;1778643;79;21544;-51
2021/04/23 07:20:22;;;;;;;7.90;3.90;;;;;;;21.70;25.41;96890.52;1783126;79;21190;-51
2021/04/23 07:22:51;;;;;;;7.17;3.62;;;;;;;21.59;25.46;96886.41;1790292;79;21747;-51
2021/04/23 07:25:19;;;;;;;7.30;4.15;;;;;;;21.71;25.52;96893.97;1780853;79;21173;-51
2021/04/23 07:27:47;;;;;;;8.45;4.20;;;;;;;22.11;25.42;96888.19;1785681;79;21137;-51
2021/04/23 07:30:21;;;;;;;9.85;4.35;;;;;;;22.56;24.29;96891.37;1781741;79;21053;-51
2021/04/23 07:32:51;;;;;;;10.00;4.17;;;;;;;22.77;24.19;96881.98;1774672;79;21120;-51
2021/04/23 07:35:18;;;;;;;6.47;3.85;;;;;;;23.00;23.76;96890.39;1781610;79;21499;-51
2021/04/23 07:37:47;;;;;;;8.93;3.87;;;;;;;23.28;23.12;96889.32;1777904;79;21058;-51
2021/04/23 07:40:17;;;;;;;7.37;3.70;;;;;;;23.62;23.05;96884.81;1758773;79;21086;-50
2021/04/23 07:42:46;;;;;;;8.00;4.37;;;;;;;23.93;22.73;96886.46;1791099;79;21089;-51
2021/04/23 07:45:15;;;;;;;7.65;3.90;;;;;;;24.23;22.37;96887.72;1789830;79;22128;-51
2021/04/23 07:47:44;;;;;;;6.83;4.03;;;;;;;24.45;22.24;96885.89;1778120;79;21120;-51
2021/04/23 07:50:13;;;;;;;;;;;;;;;24.58;21.31;96885.23;1786165;79;21132;-52
2021/04/23 07:52:41;;;;;;;9.63;3.98;;;;;;;24.51;21.70;96890.96;1786849;79;20679;-52
2021/04/23 07:55:15;;;;;;;11.68;4.15;;;;;;;24.57;21.82;96891.54;1778909;79;21596;-52
2021/04/23 07:57:45;;;;;;;8.58;4.03;;;;;;;24.78;21.35;96886.73;1728164;81;22284;-50
2021/04/23 08:00:16;;;;;;;8.20;4.30;;;;;;;24.43;21.71;96888.73;1779062;79;21076;-51
2021/04/23 08:02:45;;;;;;;9.40;4.40;;;;;;;23.56;21.82;96882.89;1779632;79;21470;-52
2021/04/23 08:05:17;;;;;;;11.08;4.20;;;;;;;22.30;22.96;96891.72;1783883;79;21139;-51
2021/04/23 08:07:47;;;;;;;5.95;4.08;;;;;;;21.73;23.99;96893.30;1784077;79;21132;-51
2021/04/23 08:10:17;;;;;;;9.03;3.70;;;;;;;21.59;24.15;96898.30;1786333;79;21817;-51
2021/04/23 08:12:48;;;;;;;9.10;3.90;;;;;;;21.90;23.66;96900.67;1720869;82;21075;-52
2021/04/23 08:15:17;;;;;;;9.03;4.12;;;;;;;21.93;23.03;96891.90;1703718;82;21074;-50
2021/04/23 08:17:46;;;;;;;7.50;3.80;;;;;;;21.78;24.27;96895.77;1777925;79;21468;-51
2021/04/23 08:20:15;;;;;;;8.48;4.30;;;;;;;21.47;24.49;96898.31;1733711;81;21526;-51
2021/04/23 08:22:45;;;;;;;7.08;4.08;;;;;;;21.29;24.77;96898.52;1790534;79;21100;-51
2021/04/23 08:25:16;;;;;;;10.13;4.00;;;;;;;20.76;25.29;96883.08;1793963;79;21489;-51
2021/04/23 08:27:46;;;;;;;9.23;3.90;;;;;;;20.15;25.61;96893.03;1782177;79;21115;-53
2021/04/23 08:30:17;;;;;;;8.60;3.85;;;;;;;19.35;26.12;96907.80;1787289;79;21550;-51
2021/04/23 08:32:45;;;;;;;6.67;4.15;;;;;;;18.63;26.67;96901.33;1723553;82;21058;-51
2021/04/23 08:35:14;;;;;;;7.05;4.28;;;;;;;17.94;27.45;96907.53;1791839;79;22374;-51
2021/04/23 08:37:43;;;;;;;9.85;4.22;;;;;;;17.92;27.64;96909.98;1785821;79;21549;-53
2021/04/23 08:40:13;;;;;;;11.57;4.53;;;;;;;18.04;28.29;96903.54;1781074;79;21176;-51
2021/04/23 08:42:42;;;;;;;6.40;3.47;;;;;;;17.99;28.71;96913.20;1722832;82;21151;-52
2021/04/23 08:45:14;;;;;;;8.25;3.17;;;;;;;17.78;27.88;96908.16;1783276;79;21124;-50
2021/04/23 08:47:45;;;;;;;8.33;3.10;;;;;;;17.54;26.45;96911.29;1793100;79;21360;-52
2021/04/23 08:50:15;;;;;;;6.90;3.47;;;;;;;17.48;26.12;96903.98;1781270;79;21171;-51
2021/04/23 08:52:46;;;;;;;7.97;3.50;;;;;;;17.49;27.19;96904.34;1791609;79;21109;-52
2021/04/23 08:55:20;;;;;;;8.63;3.58;;;;;;;17.48;27.36;96902.20;1755088;79;21085;-51
2021/04/23 08:57:51;;;;;;;8.30;3.30;;;;;;;17.27;27.60;96905.03;1783897;79;21113;-50
2021/04/23 09:00:21;;;;;;;12.60;3.52;;;;;;;17.05;27.43;96901.42;1757834;79;22295;-50
2021/04/23 09:02:48;;;;;;;8.28;3.30;;;;;;;16.74;28.01;96896.32;1789076;79;21060;-50
2021/04/23 09:05:17;;;;;;;9.40;3.30;;;;;;;16.41;29.38;96896.27;1782243;78;21064;-50
2021/04/23 09:08:04;;;;;;;5.87;3.20;;;;;;;16.27;29.03;96890.97;1776672;79;21168;-52
2021/04/23 09:10:35;;;;;;;6.55;3.52;;;;;;;16.47;28.78;96892.61;1779269;79;21191;-50
2021/04/23 09:13:13;;;;;;;10.68;3.58;;;;;;;16.33;29.01;96893.02;1737524;81;21207;-50
2021/04/23 09:15:44;;;;;;;7.35;3.45;;;;;;;16.12;28.69;96890.05;1731062;81;21612;-51
2021/04/23 09:18:24;;;;;;;6.62;3.20;;;;;;;15.61;29.69;96890.50;1741810;81;21116;-52
2021/04/23 09:21:04;;;;;;;8.05;3.58;;;;;;;15.31;30.18;96897.86;1718540;81;21164;-50
2021/04/23 09:23:39;;;;;;;8.93;4.22;;;;;;;15.04;30.41;96901.03;1744604;81;21161;-51
2021/04/23 09:26:09;;;;;;;7.65;3.98;;;;;;;14.83;30.88;96898.41;1698606;82;22017;-52
2021/04/23 09:28:58;;;;;;;5.10;3.12;;;;;;;14.68;31.04;96897.41;1708686;82;21069;-50
2021/04/23 09:31:31;;;;;;;6.78;3.67;;;;;;;14.50;31.06;96897.11;1701964;81;21172;-50
2021/04/23 09:34:04;;;;;;;9.80;3.85;;;;;;;14.30;30.69;96886.98;1741545;81;21140;-51
2021/04/23 09:36:38;;;;;;;10.25;3.67;;;;;;;14.02;31.11;96896.69;1742730;81;21176;-50
2021/04/23 09:39:23;;;;;;;7.45;3.65;;;;;;;13.73;30.85;96904.56;1736316;81;21473;-51
2021/04/23 09:42:02;;;;;;;4.05;2.75;;;;;;;13.53;30.96;96900.06;1735113;81;21152;-51
2021/04/23 09:44:37;;;;;;;10.53;3.47;;;;;;;13.39;30.81;96896.75;1745123;81;21212;-55
2021/04/23 09:47:20;;;;;;;8.65;3.40;;;;;;;13.12;31.62;96899.64;1715565;81;21125;-51
2021/04/23 09:49:59;;;;;;;8.05;3.37;;;;;;;12.89;32.02;96902.23;1710427;83;21057;-51
2021/04/23 09:52:28;;;;;;;8.33;3.45;;;;;;;12.88;32.92;96894.53;1732066;81;21385;-51
2021/04/23 09:55:03;;;;;;;7.90;3.08;;;;;;;12.92;33.62;96898.55;1740357;81;21074;-51
2021/04/23 09:57:39;;;;;;;8.65;3.40;;;;;;;13.02;33.75;96898.69;1734911;81;21627;-51
2021/04/23 10:00:11;;;;;;;6.28;3.00;;;;;;;13.09;33.46;96898.56;1706707;83;21102;-51
2021/04/23 10:02:39;;;;;;;8.43;3.35;;;;;;;13.01;33.30;96900.92;1737145;81;21042;-51
2021/04/23 10:05:09;;;;;;;8.50;3.22;;;;;;;12.96;33.47;96892.63;1735022;81;21504;-52
2021/04/23 10:07:40;;;;;;;10.98;3.55;;;;;;;12.86;33.29;96892.04;1669064;82;21194;-51
2021/04/23 10:10:12;;;;;;;6.90;3.40;;;;;;;12.87;33.06;96890.25;1746462;81;21169;-53
2021/04/23 10:12:58;;;;;;;13.38;4.03;;;;;;;12.91;33.15;96887.80;1737932;81;21197;-51
2021/04/23 10:15:30;;;;;;;7.83;3.10;;;;;;;12.92;33.26;96884.22;1740742;81;21059;-52
2021/04/23 10:18:02;;;;;;;8.18;3.60;;;;;;;12.91;33.69;96882.59;1672901;84;21215;-52
2021/04/23 10:20:36;;;;;;;8.45;3.40;;;;;;;13.07;33.34;96880.93;1683256;84;21615;-52
2021/04/23 10:23:07;;;;;;;6.90;3.45;;;;;;;13.57;32.74;96877.55;1737771;81;21152;-52
2021/04/23 10:25:43;;;;;;;7.28;3.10;;;;;;;14.17;31.98;96864.95;1748453;81;21141;-51
2021/04/23 10:28:19;;;;;;;8.53;3.45;;;;;;;14.67;30.71;96860.52;1733739;81;21056;-52
2021/04/23 10:30:50;;;;;;;8.45;3.70;;;;;;;14.89;29.36;96872.61;1743678;81;21451;-52
2021/04/23 10:33:22;;;;;;;9.05;2.95;;;;;;;14.96;29.81;96865.08;1680867;84;21482;-51
2021/04/23 10:35:54;;;;;;;9.25;3.30;;;;;;;15.06;29.87;96862.03;1679930;84;21176;-52
2021/04/23 10:38:35;;;;;;;15.78;3.90;;;;;;;15.16;30.20;96859.47;1712255;83;21148;-53
2021/04/23 10:41:07;;;;;;;6.37;3.20;;;;;;;15.28;30.06;96855.02;1681077;84;21137;-51
2021/04/23 10:43:55;;;;;;;6.12;3.33;;;;;;;15.39;29.35;96851.46;1710678;83;21185;-52
2021/04/23 10:46:23;;;;;;;6.72;3.27;;;;;;;15.37;29.44;96848.98;1703186;83;21219;-51
2021/04/23 10:49:04;;;;;;;6.03;3.27;;;;;;;15.24;30.04;96857.03;1708618;81;21178;-51
2021/04/23 10:51:39;;;;;;;8.90;3.40;;;;;;;15.11;29.75;96844.66;1877114;75;28075;-51
2021/04/23 10:54:16;;;;;;;6.22;2.95;;;;;;;14.93;29.48;96854.06;1834553;77;21609;-51
2021/04/23 10:56:52;;;;;;;6.05;2.77;;;;;;;14.86;29.85;96853.76;1832541;77;22108;-52
2021/04/23 10:59:35;;;;;;;5.85;2.62;;;;;;;14.82;29.73;96849.27;1807773;77;21060;-52
2021/04/23 11:02:16;;;;;;;8.13;2.75;;;;;;;14.72;30.06;96854.92;1788742;79;21053;-51
2021/04/23 11:04:59;;;;;;;7.33;3.70;;;;;;;14.62;30.22;96856.16;1832361;77;21008;-51
2021/04/23 11:07:30;;;;;;;8.13;3.20;;;;;;;14.56;30.44;96854.02;1816339;77;21549;-52
2021/04/23 11:10:00;;;;;;;8.73;3.20;;;;;;;14.44;30.82;96851.94;1830931;77;22547;-50
2021/04/23 11:12:29;;;;;;;6.22;3.20;;;;;;;14.20;31.63;96852.16;1835279;77;21171;-51
2021/04/23 11:15:15;;;;;;;7.28;3.42;;;;;;;13.98;32.02;96849.16;1841435;77;20926;-51
2021/04/23 11:17:44;;;;;;;7.95;3.33;;;;;;;13.73;32.72;96858.08;1825883;77;21120;-52
2021/04/23 11:20:30;;;;;;;8.30;3.20;;;;;;;13.48;32.64;96860.49;1829071;77;21112;-52
2021/04/23 11:23:02;;;;;;;4.22;3.12;;;;;;;13.22;32.65;96864.14;1770169;79;21588;-51
2021/04/23 11:25:30;;;;;;;6.97;3.20;;;;;;;12.84;33.75;96874.38;1763754;80;21187;-52
2021/04/23 11:28:07;;;;;;;6.83;2.97;;;;;;;12.55;34.88;96873.12;1736402;81;21076;-52
2021/04/23 11:30:57;;;;;;;5.85;2.72;;;;;;;12.32;35.58;96866.55;1755623;80;21521;-51
2021/04/23 11:33:49;;;;;;;6.30;3.12;;;;;;;12.27;36.76;96868.19;1760068;80;21108;-51
2021/04/23 11:36:27;;;;;;;7.17;2.90;;;;;;;12.59;36.11;96862.85;1761353;80;22290;-52
2021/04/23 11:39:06;;;;;;;5.47;3.33;;;;;;;13.18;35.60;96857.50;1872614;76;28090;-52
2021/04/23 11:41:34;;;;;;;8.08;3.62;;;;;;;13.60;35.28;96853.84;1835291;77;21605;-52
2021/04/23 11:44:04;;;;;;;;;;;;;;;13.93;34.17;96848.66;1840578;77;21147;-51
2021/04/23 11:46:54;;;;;;;6.10;2.70;;;;;;;14.14;33.36;96842.20;1803038;77;20630;-51
2021/04/23 11:49:22;;;;;;;5.03;3.00;;;;;;;14.30;33.42;96844.41;1837255;77;21104;-51
2021/04/23 11:51:52;;;;;;;8.18;2.87;;;;;;;14.61;32.49;96844.53;1827494;77;20962;-51
2021/04/23 11:54:37;;;;;;;7.62;3.42;;;;;;;14.71;32.73;96850.16;1837208;77;21044;-51
2021/04/23 11:57:08;;;;;;;6.40;3.17;;;;;;;14.69;32.22;96839.50;1840415;77;21603;-51